createdAt,value
2023-05-14T00:01:36.297Z,9.33
2023-05-14T00:04:03.824Z,8.73
2023-05-14T00:06:30.437Z,9.00
2023-05-14T00:08:57.378Z,8.40
2023-05-14T00:11:24.018Z,10.13
2023-05-14T00:13:50.883Z,9.43
2023-05-14T00:16:17.448Z,9.43
2023-05-14T00:18:43.935Z,10.27
2023-05-14T00:21:10.363Z,9.70
2023-05-14T00:23:36.817Z,9.87
2023-05-14T00:26:03.384Z,10.83
2023-05-14T00:28:29.798Z,10.37
2023-05-14T00:30:57.125Z,10.30
2023-05-14T00:33:23.778Z,10.23
2023-05-14T00:35:50.294Z,9.80
2023-05-14T00:38:19.188Z,9.70
2023-05-14T00:40:51.164Z,10.63
2023-05-14T00:43:19.846Z,10.10
2023-05-14T00:45:47.241Z,10.07
2023-05-14T00:48:14.007Z,10.00
2023-05-14T00:50:40.849Z,9.87
2023-05-14T00:53:10.219Z,10.43
2023-05-14T00:55:38.334Z,9.93
2023-05-14T00:58:11.548Z,9.80
2023-05-14T01:00:39.007Z,10.03
2023-05-14T01:03:07.538Z,9.57
2023-05-14T01:05:43.769Z,9.37
2023-05-14T01:08:26.505Z,9.83
2023-05-14T01:11:00.188Z,10.13
2023-05-14T01:13:54.014Z,10.23
2023-05-14T01:16:21.863Z,10.30
2023-05-14T01:18:51.890Z,10.37
2023-05-14T01:21:44.917Z,10.47
2023-05-14T01:24:11.299Z,9.63
2023-05-14T01:26:37.850Z,10.90
2023-05-14T01:29:20.720Z,10.20
2023-05-14T01:31:48.910Z,10.77
2023-05-14T01:34:16.203Z,10.67
2023-05-14T01:36:43.701Z,11.07
2023-05-14T01:39:11.943Z,9.37
2023-05-14T01:41:42.184Z,9.27
2023-05-14T01:44:12.587Z,8.67
2023-05-14T01:46:39.084Z,9.37
2023-05-14T01:49:05.475Z,8.90
2023-05-14T01:51:31.936Z,9.97
2023-05-14T01:53:58.449Z,9.77
2023-05-14T01:56:25.702Z,9.80
2023-05-14T01:58:52.565Z,9.80
2023-05-14T02:01:19.070Z,10.17
2023-05-14T02:03:47.357Z,9.90
2023-05-14T02:06:14.215Z,10.50
2023-05-14T02:08:40.609Z,10.10
2023-05-14T02:11:07.288Z,10.23
2023-05-14T02:13:33.780Z,10.77
2023-05-14T02:16:00.267Z,10.93
2023-05-14T02:18:26.823Z,10.93
2023-05-14T02:20:53.239Z,10.20
2023-05-14T02:23:25.688Z,10.50
2023-05-14T02:25:58.071Z,10.10
2023-05-14T02:28:24.567Z,9.73
2023-05-14T02:30:51.224Z,9.87
2023-05-14T02:33:17.702Z,9.73
2023-05-14T02:35:44.191Z,10.20
2023-05-14T02:38:10.630Z,11.30
2023-05-14T02:40:37.170Z,10.03
2023-05-14T02:43:03.791Z,11.07
2023-05-14T02:45:30.216Z,10.50
2023-05-14T02:47:56.742Z,10.60
2023-05-14T02:50:23.517Z,10.00
2023-05-14T02:52:50.483Z,10.27
2023-05-14T02:55:17.052Z,9.87
2023-05-14T02:57:43.466Z,9.77
2023-05-14T03:00:10.565Z,10.43
2023-05-14T03:02:37.666Z,11.23
2023-05-14T03:05:05.042Z,10.83
2023-05-14T03:07:31.426Z,10.70
2023-05-14T03:10:00.280Z,10.03
2023-05-14T03:12:26.897Z,10.13
2023-05-14T03:14:53.288Z,11.03
2023-05-14T03:17:20.023Z,10.90
2023-05-14T03:19:46.499Z,11.17
2023-05-14T03:22:12.939Z,10.53
2023-05-14T03:24:39.867Z,11.13
2023-05-14T03:27:06.668Z,10.63
2023-05-14T03:29:33.551Z,10.93
2023-05-14T03:32:00.057Z,10.47
2023-05-14T03:34:27.317Z,11.07
2023-05-14T03:36:54.164Z,10.70
2023-05-14T03:39:21.322Z,10.43
2023-05-14T03:41:48.536Z,11.37
2023-05-14T03:44:15.604Z,11.63
2023-05-14T03:46:42.061Z,11.53
2023-05-14T03:49:08.915Z,11.90
2023-05-14T03:51:35.441Z,11.23
2023-05-14T03:54:04.552Z,10.87
2023-05-14T03:56:31.137Z,11.43
2023-05-14T03:58:57.590Z,11.13
2023-05-14T04:01:24.197Z,11.53
2023-05-14T04:03:50.945Z,11.63
2023-05-14T04:06:17.580Z,10.90
2023-05-14T04:08:44.006Z,11.73
2023-05-14T04:11:10.457Z,11.57
2023-05-14T04:13:36.846Z,11.77
2023-05-14T04:16:03.283Z,12.17
2023-05-14T04:18:29.959Z,11.77
2023-05-14T04:20:56.672Z,11.50
2023-05-14T04:23:23.175Z,11.43
2023-05-14T04:25:50.015Z,12.07
2023-05-14T04:28:16.608Z,11.87
2023-05-14T04:30:43.097Z,12.40
2023-05-14T04:33:10.149Z,12.80
2023-05-14T04:35:36.927Z,12.63
2023-05-14T04:38:03.464Z,11.30
2023-05-14T04:40:31.256Z,11.07
2023-05-14T04:42:57.845Z,11.30
2023-05-14T04:45:24.288Z,12.17
2023-05-14T04:47:51.366Z,11.80
2023-05-14T04:50:17.892Z,11.57
2023-05-14T04:52:44.333Z,10.53
2023-05-14T04:55:10.733Z,11.43
2023-05-14T04:57:37.129Z,10.93
2023-05-14T05:00:05.922Z,12.10
2023-05-14T05:02:32.949Z,11.43
2023-05-14T05:04:59.358Z,11.80
2023-05-14T05:07:25.814Z,12.47
2023-05-14T05:09:52.426Z,12.40
2023-05-14T05:12:18.994Z,14.50
2023-05-14T05:14:45.429Z,14.83
2023-05-14T05:17:11.830Z,12.50
2023-05-14T05:19:43.696Z,12.53
2023-05-14T05:22:10.880Z,11.37
2023-05-14T05:24:37.563Z,12.23
2023-05-14T05:27:05.320Z,10.90
2023-05-14T05:29:31.948Z,10.97
2023-05-14T05:31:58.580Z,11.80
2023-05-14T05:34:24.985Z,11.03
2023-05-14T05:36:51.603Z,10.63
2023-05-14T05:39:18.092Z,10.77
2023-05-14T05:41:44.474Z,10.87
2023-05-14T05:44:10.915Z,11.00
2023-05-14T05:46:37.738Z,9.73
2023-05-14T05:49:04.191Z,10.67
2023-05-14T05:51:30.606Z,10.37
2023-05-14T05:53:56.981Z,10.40
2023-05-14T05:56:23.356Z,10.50
2023-05-14T05:58:49.972Z,10.10
2023-05-14T06:01:16.461Z,10.67
2023-05-14T06:03:42.857Z,9.57
2023-05-14T06:06:09.274Z,9.83
2023-05-14T06:08:35.976Z,9.70
2023-05-14T06:11:03.000Z,9.90
2023-05-14T06:13:29.401Z,9.00
2023-05-14T06:15:55.862Z,8.63
2023-05-14T06:18:22.503Z,9.07
2023-05-14T06:20:49.120Z,8.37
2023-05-14T06:23:15.684Z,9.07
2023-05-14T06:25:42.161Z,8.30
2023-05-14T06:28:08.536Z,8.70
2023-05-14T06:30:35.008Z,8.20
2023-05-14T06:33:01.980Z,8.47
2023-05-14T06:35:28.386Z,8.37
2023-05-14T06:37:54.832Z,8.67
2023-05-14T06:40:21.676Z,8.60
2023-05-14T06:42:48.444Z,9.13
2023-05-14T06:45:14.993Z,8.67
2023-05-14T06:47:41.525Z,8.67
2023-05-14T06:50:10.177Z,7.67
2023-05-14T06:52:37.564Z,9.00
2023-05-14T06:55:04.249Z,8.30
2023-05-14T06:57:30.669Z,9.00
2023-05-14T06:59:57.469Z,8.20
2023-05-14T07:02:24.062Z,8.20
2023-05-14T07:04:50.746Z,8.63
2023-05-14T07:07:20.625Z,9.03
2023-05-14T07:09:47.845Z,8.53
2023-05-14T07:12:14.352Z,8.00
2023-05-14T07:14:40.738Z,7.83
2023-05-14T07:17:07.296Z,8.60
2023-05-14T07:19:33.757Z,8.57
2023-05-14T07:22:00.988Z,7.97
2023-05-14T07:24:27.391Z,7.60
2023-05-14T07:26:54.495Z,7.97
2023-05-14T07:29:20.884Z,7.53
2023-05-14T07:31:47.484Z,7.00
2023-05-14T07:34:14.023Z,7.40
2023-05-14T07:36:41.071Z,7.53
2023-05-14T07:39:07.788Z,6.80
2023-05-14T07:41:34.209Z,6.70
2023-05-14T07:44:00.639Z,6.73
2023-05-14T07:46:27.202Z,6.30
2023-05-14T07:48:53.690Z,7.00
2023-05-14T07:51:21.708Z,6.40
2023-05-14T07:53:48.223Z,6.30
2023-05-14T07:56:14.764Z,6.50
2023-05-14T07:58:41.426Z,5.77
2023-05-14T08:01:09.115Z,5.30
2023-05-14T08:03:35.647Z,5.50
2023-05-14T08:06:02.230Z,6.07
2023-05-14T08:08:28.707Z,5.20
2023-05-14T08:10:55.676Z,5.80
2023-05-14T08:13:22.205Z,5.53
2023-05-14T08:15:48.938Z,5.03
2023-05-14T08:18:15.491Z,6.00
2023-05-14T08:20:41.971Z,5.23
2023-05-14T08:23:09.226Z,5.43
2023-05-14T08:25:35.715Z,5.30
2023-05-14T08:28:02.254Z,5.20
2023-05-14T08:30:28.756Z,5.53
2023-05-14T08:32:55.935Z,5.17
2023-05-14T08:35:22.687Z,5.23
2023-05-14T08:37:50.183Z,5.23
2023-05-14T08:40:18.167Z,5.03
2023-05-14T08:42:45.056Z,5.43
2023-05-14T08:45:28.704Z,5.77
2023-05-14T08:47:56.182Z,4.93
2023-05-14T08:50:23.789Z,5.17
2023-05-14T08:52:51.058Z,5.00
2023-05-14T08:55:17.977Z,4.90
2023-05-14T08:57:44.507Z,4.73
2023-05-14T09:00:11.914Z,5.10
2023-05-14T09:02:40.682Z,4.77
2023-05-14T09:05:09.169Z,5.17
2023-05-14T09:07:36.049Z,4.93
2023-05-14T09:10:03.787Z,5.03
2023-05-14T09:12:30.403Z,5.07
2023-05-14T09:14:56.961Z,5.10
2023-05-14T09:17:26.163Z,5.20
2023-05-14T09:19:53.204Z,5.10
2023-05-14T09:22:20.943Z,4.97
2023-05-14T09:25:02.402Z,4.77
2023-05-14T09:27:30.662Z,4.13
2023-05-14T09:30:04.653Z,3.83
2023-05-14T09:32:36.521Z,4.30
2023-05-14T09:35:13.462Z,4.50
2023-05-14T09:37:42.763Z,4.33
2023-05-14T09:40:10.638Z,4.67
2023-05-14T09:42:37.317Z,5.40
2023-05-14T09:45:05.018Z,4.80
2023-05-14T09:47:32.693Z,5.00
2023-05-14T09:49:59.323Z,4.40
2023-05-14T09:52:26.210Z,4.37
2023-05-14T09:54:53.222Z,4.17
2023-05-14T09:57:20.128Z,4.60
2023-05-14T09:59:46.917Z,4.20
2023-05-14T10:02:30.146Z,4.30
2023-05-14T10:05:02.515Z,4.17
2023-05-14T10:07:47.941Z,4.30
2023-05-14T10:10:18.554Z,4.30
2023-05-14T10:12:52.393Z,4.17
2023-05-14T10:15:37.028Z,4.50
2023-05-14T10:18:10.130Z,4.27
2023-05-14T10:20:39.674Z,4.40
2023-05-14T10:23:07.686Z,4.70
2023-05-14T10:25:37.048Z,4.77
2023-05-14T10:28:05.973Z,4.27
2023-05-14T10:30:32.657Z,4.30
2023-05-14T10:33:13.282Z,4.80
2023-05-14T10:35:57.683Z,4.73
2023-05-14T10:38:34.433Z,4.67
2023-05-14T10:41:06.061Z,5.10
2023-05-14T10:43:38.644Z,4.47
2023-05-14T10:46:05.967Z,4.70
2023-05-14T10:48:34.002Z,4.40
2023-05-14T10:51:02.056Z,4.87
2023-05-14T10:53:35.643Z,4.70
2023-05-14T10:56:13.564Z,4.87
2023-05-14T10:58:42.888Z,4.80
2023-05-14T11:01:11.638Z,4.77
2023-05-14T11:03:43.374Z,5.10
2023-05-14T11:06:13.710Z,4.93
2023-05-14T11:08:40.959Z,4.77
2023-05-14T11:11:09.136Z,4.80
2023-05-14T11:13:35.890Z,4.70
2023-05-14T11:16:15.112Z,5.00
2023-05-14T11:18:47.934Z,4.73
2023-05-14T11:21:14.414Z,4.47
2023-05-14T11:23:40.960Z,5.20
2023-05-14T11:26:07.594Z,4.40
2023-05-14T11:28:34.266Z,4.63
2023-05-14T11:31:01.001Z,4.30
2023-05-14T11:33:27.783Z,4.50
2023-05-14T11:35:54.187Z,4.73
2023-05-14T11:38:21.383Z,4.33
2023-05-14T11:40:58.031Z,4.83
2023-05-14T11:43:26.045Z,4.77
2023-05-14T11:45:53.673Z,4.53
2023-05-14T11:48:21.308Z,4.97
2023-05-14T11:50:52.716Z,4.43
2023-05-14T11:53:20.061Z,4.87
2023-05-14T11:55:47.309Z,4.20
2023-05-14T11:58:14.046Z,4.60
2023-05-14T12:00:40.924Z,5.03
2023-05-14T12:03:10.031Z,4.43
2023-05-14T12:05:39.422Z,4.90
2023-05-14T12:08:29.484Z,4.70
2023-05-14T12:10:57.879Z,4.60
2023-05-14T12:13:31.688Z,4.50
2023-05-14T12:16:00.769Z,4.80
2023-05-14T12:18:30.358Z,5.10
2023-05-14T12:21:03.002Z,5.50
2023-05-14T12:23:30.998Z,5.17
2023-05-14T12:26:09.150Z,4.80
2023-05-14T12:28:38.775Z,5.03
2023-05-14T12:31:05.793Z,5.33
2023-05-14T12:33:32.664Z,4.87
2023-05-14T12:36:07.370Z,4.23
2023-05-14T12:38:41.194Z,4.30
2023-05-14T12:41:07.849Z,4.50
2023-05-14T12:43:34.309Z,5.23
2023-05-14T12:46:00.839Z,4.37
2023-05-14T12:48:27.224Z,4.77
2023-05-14T12:50:53.649Z,4.57
2023-05-14T12:53:20.071Z,5.13
2023-05-14T12:55:46.566Z,4.93
2023-05-14T12:58:12.960Z,5.70
2023-05-14T13:00:39.934Z,4.73
2023-05-14T13:03:06.454Z,4.83
2023-05-14T13:05:33.381Z,5.10
2023-05-14T13:08:02.233Z,5.10
2023-05-14T13:10:28.767Z,4.97
2023-05-14T13:12:56.325Z,4.93
2023-05-14T13:15:23.038Z,4.33
2023-05-14T13:17:49.660Z,5.17
2023-05-14T13:20:18.219Z,5.40
2023-05-14T13:22:44.971Z,4.63
2023-05-14T13:25:11.522Z,4.77
2023-05-14T13:27:37.973Z,4.80
2023-05-14T13:30:04.702Z,5.03
2023-05-14T13:32:31.556Z,4.70
2023-05-14T13:34:58.054Z,4.57
2023-05-14T13:37:25.270Z,5.10
2023-05-14T13:39:51.715Z,4.47
2023-05-14T13:42:18.195Z,4.33
2023-05-14T13:44:44.676Z,4.67
2023-05-14T13:47:11.044Z,5.17
2023-05-14T13:49:37.663Z,5.00
2023-05-14T13:52:04.517Z,4.83
2023-05-14T13:54:30.952Z,4.80
2023-05-14T13:56:57.340Z,4.53
2023-05-14T13:59:23.959Z,4.60
2023-05-14T14:01:51.455Z,4.80
2023-05-14T14:04:18.108Z,4.87
2023-05-14T14:06:44.569Z,4.33
2023-05-14T14:09:12.582Z,4.67
2023-05-14T14:11:39.607Z,4.57
2023-05-14T14:14:06.155Z,4.83
2023-05-14T14:16:32.879Z,4.23
2023-05-14T14:18:59.441Z,4.73
2023-05-14T14:21:25.940Z,4.70
2023-05-14T14:23:52.419Z,4.30
2023-05-14T14:26:18.835Z,4.23
2023-05-14T14:28:45.487Z,4.47
2023-05-14T14:31:11.996Z,4.47
2023-05-14T14:33:38.631Z,4.00
2023-05-14T14:36:05.901Z,3.80
2023-05-14T14:38:32.606Z,4.23
2023-05-14T14:40:59.209Z,4.43
2023-05-14T14:43:25.669Z,4.10
2023-05-14T14:45:52.118Z,3.87
2023-05-14T14:48:39.971Z,3.87
2023-05-14T14:51:07.539Z,3.53
2023-05-14T14:53:35.087Z,4.10
2023-05-14T14:56:02.630Z,3.90
2023-05-14T14:58:29.304Z,4.13
2023-05-14T15:00:56.795Z,4.10
2023-05-14T15:03:25.004Z,3.70
2023-05-14T15:05:53.277Z,3.90
2023-05-14T15:08:20.803Z,3.60
2023-05-14T15:10:47.341Z,4.50
2023-05-14T15:13:13.753Z,4.20
2023-05-14T15:15:40.218Z,4.13
2023-05-14T15:18:06.809Z,4.17
2023-05-14T15:20:33.461Z,4.40
2023-05-14T15:22:59.936Z,4.40
2023-05-14T15:25:27.091Z,4.20
2023-05-14T15:27:53.557Z,4.30
2023-05-14T15:30:20.523Z,4.10
2023-05-14T15:32:47.151Z,4.60
2023-05-14T15:35:13.995Z,3.90
2023-05-14T15:37:42.353Z,4.10
2023-05-14T15:40:10.224Z,4.03
2023-05-14T15:42:42.173Z,4.30
2023-05-14T15:45:10.397Z,4.90
2023-05-14T15:47:36.938Z,4.30
2023-05-14T15:50:03.933Z,4.10
2023-05-14T15:52:30.763Z,3.83
2023-05-14T15:54:59.270Z,4.00
2023-05-14T15:57:25.767Z,4.20
2023-05-14T15:59:52.198Z,4.00
2023-05-14T16:02:18.762Z,4.00
2023-05-14T16:04:45.385Z,3.90
2023-05-14T16:07:12.172Z,3.83
2023-05-14T16:09:39.370Z,3.80
2023-05-14T16:12:06.992Z,4.20
2023-05-14T16:14:34.753Z,3.90
2023-05-14T16:17:04.584Z,4.70
2023-05-14T16:19:31.035Z,4.07
2023-05-14T16:21:57.512Z,4.27
2023-05-14T16:24:24.038Z,4.03
2023-05-14T16:26:50.755Z,3.80
2023-05-14T16:29:17.703Z,4.00
2023-05-14T16:31:44.311Z,4.30
2023-05-14T16:34:10.726Z,4.27
2023-05-14T16:36:37.701Z,4.10
2023-05-14T16:39:08.024Z,3.70
2023-05-14T16:41:35.788Z,4.27
2023-05-14T16:44:02.684Z,3.93
2023-05-14T16:46:29.540Z,4.07
2023-05-14T16:48:56.514Z,3.73
2023-05-14T16:51:22.930Z,4.00
2023-05-14T16:53:49.303Z,3.90
2023-05-14T16:56:15.749Z,3.87
2023-05-14T16:58:42.256Z,3.83
2023-05-14T17:01:09.685Z,3.60
2023-05-14T17:03:36.887Z,3.73
2023-05-14T17:06:04.600Z,3.93
2023-05-14T17:08:33.450Z,4.33
2023-05-14T17:11:00.068Z,4.53
2023-05-14T17:13:26.836Z,4.27
2023-05-14T17:15:53.402Z,4.20
2023-05-14T17:18:19.900Z,4.37
2023-05-14T17:20:46.340Z,4.00
2023-05-14T17:23:12.996Z,4.50
2023-05-14T17:25:39.694Z,4.10
2023-05-14T17:28:06.588Z,4.20
2023-05-14T17:30:33.146Z,4.33
2023-05-14T17:32:59.845Z,4.10
2023-05-14T17:35:26.395Z,4.13
2023-05-14T17:37:52.904Z,4.33
2023-05-14T17:40:19.422Z,4.00
2023-05-14T17:42:46.253Z,4.37
2023-05-14T17:45:14.404Z,4.50
2023-05-14T17:47:41.154Z,4.07
2023-05-14T17:50:08.259Z,3.77
2023-05-14T17:52:34.805Z,4.17
2023-05-14T17:55:01.252Z,4.13
2023-05-14T17:57:28.013Z,4.40
2023-05-14T17:59:54.539Z,4.60
2023-05-14T18:02:21.047Z,4.10
2023-05-14T18:04:47.448Z,4.20
2023-05-14T18:07:13.975Z,4.20
2023-05-14T18:09:40.477Z,3.73
2023-05-14T18:12:07.518Z,3.87
2023-05-14T18:14:34.057Z,4.20
2023-05-14T18:17:00.594Z,3.97
2023-05-14T18:19:27.223Z,3.87
2023-05-14T18:21:55.426Z,3.70
2023-05-14T18:24:22.255Z,3.80
2023-05-14T18:26:48.793Z,3.73
2023-05-14T18:29:15.301Z,3.57
2023-05-14T18:31:41.689Z,3.97
2023-05-14T18:34:08.343Z,4.30
2023-05-14T18:36:35.887Z,4.00
2023-05-14T18:39:02.358Z,4.10
2023-05-14T18:41:28.796Z,3.87
2023-05-14T18:43:55.376Z,4.80
2023-05-14T18:46:22.017Z,4.30
2023-05-14T18:48:48.397Z,4.50
2023-05-14T18:51:14.831Z,4.10
2023-05-14T18:53:41.352Z,4.80
2023-05-14T18:56:09.403Z,4.70
2023-05-14T18:58:35.899Z,4.40
2023-05-14T19:01:02.311Z,4.50
2023-05-14T19:03:28.953Z,4.77
2023-05-14T19:05:55.654Z,5.30
2023-05-14T19:08:22.112Z,4.63
2023-05-14T19:10:48.614Z,4.73
2023-05-14T19:13:16.510Z,4.67
2023-05-14T19:15:43.333Z,4.63
2023-05-14T19:18:10.696Z,5.20
2023-05-14T19:20:37.411Z,4.80
2023-05-14T19:23:05.463Z,4.67
2023-05-14T19:25:32.059Z,4.63
2023-05-14T19:28:01.994Z,4.80
2023-05-14T19:30:28.428Z,4.77
2023-05-14T19:32:54.949Z,4.67
2023-05-14T19:35:21.478Z,5.10
2023-05-14T19:37:47.852Z,4.47
2023-05-14T19:40:14.263Z,4.70
2023-05-14T19:42:40.676Z,4.67
2023-05-14T19:45:07.869Z,5.07
2023-05-14T19:47:34.685Z,4.83
2023-05-14T19:50:01.442Z,5.67
2023-05-14T19:52:27.934Z,5.33
2023-05-14T19:54:54.344Z,6.10
2023-05-14T19:57:20.752Z,5.60
2023-05-14T19:59:47.238Z,6.10
2023-05-14T20:04:45.867Z,6.30
2023-05-14T20:07:13.904Z,6.80
2023-05-14T20:09:40.346Z,5.73
2023-05-14T20:12:07.275Z,6.00
2023-05-14T20:14:33.849Z,6.00
2023-05-14T20:17:00.304Z,5.93
2023-05-14T20:19:27.517Z,6.77
2023-05-14T20:21:53.972Z,5.70
2023-05-14T20:24:20.360Z,6.70
2023-05-14T20:26:46.830Z,6.30
2023-05-14T20:29:14.402Z,6.70
2023-05-14T20:31:40.935Z,7.07
2023-05-14T20:34:07.424Z,7.50
2023-05-14T20:36:34.551Z,6.77
2023-05-14T20:39:01.602Z,6.83
2023-05-14T20:41:28.100Z,6.93
2023-05-14T20:43:54.538Z,7.23
2023-05-14T20:46:21.081Z,7.00
2023-05-14T20:48:48.225Z,6.47
2023-05-14T20:51:14.687Z,6.00
2023-05-14T20:53:41.241Z,6.73
2023-05-14T20:56:07.697Z,6.73
2023-05-14T20:58:35.007Z,6.80
2023-05-14T21:01:02.173Z,7.30
2023-05-14T21:03:28.658Z,6.40
2023-05-14T21:05:56.744Z,7.00
2023-05-14T21:08:23.265Z,7.30
2023-05-14T21:10:49.710Z,6.87
2023-05-14T21:13:16.223Z,7.20
2023-05-14T21:15:42.682Z,6.80
2023-05-14T21:18:09.175Z,6.80
2023-05-14T21:20:35.957Z,7.20
2023-05-14T21:23:02.493Z,7.40
2023-05-14T21:25:29.310Z,7.40
2023-05-14T21:27:56.776Z,6.80
2023-05-14T21:30:23.206Z,7.97
2023-05-14T21:32:49.712Z,7.77
2023-05-14T21:35:16.178Z,8.20
2023-05-14T21:37:42.599Z,8.60
2023-05-14T21:40:12.692Z,9.27
2023-05-14T21:42:41.889Z,8.70
2023-05-14T21:45:08.793Z,8.43
2023-05-14T21:47:35.329Z,8.90
2023-05-14T21:50:02.354Z,8.93
2023-05-14T21:52:28.772Z,8.97
2023-05-14T21:54:55.166Z,9.23
2023-05-14T21:57:21.682Z,8.17
2023-05-14T21:59:48.096Z,8.20
2023-05-14T22:02:14.672Z,8.13
2023-05-14T22:04:41.297Z,8.67
2023-05-14T22:07:07.758Z,8.50
2023-05-14T22:09:34.361Z,9.10
2023-05-14T22:12:00.893Z,8.73
2023-05-14T22:14:29.748Z,8.80
2023-05-14T22:16:56.596Z,8.80
2023-05-14T22:19:23.069Z,8.70
2023-05-14T22:21:49.480Z,9.03
2023-05-14T22:24:15.919Z,8.77
2023-05-14T22:26:42.357Z,8.73
2023-05-14T22:29:08.801Z,9.03
2023-05-14T22:31:35.273Z,8.83
2023-05-14T22:34:01.940Z,8.43
2023-05-14T22:36:28.697Z,8.40
2023-05-14T22:38:55.108Z,9.07
2023-05-14T22:41:22.027Z,9.67
2023-05-14T22:43:48.578Z,9.27
2023-05-14T22:46:15.797Z,9.57
2023-05-14T22:48:42.171Z,9.17
2023-05-14T22:51:08.673Z,8.97
2023-05-14T22:53:35.122Z,10.00
2023-05-14T22:56:01.967Z,9.20
2023-05-14T22:58:28.482Z,9.97
2023-05-14T23:00:54.852Z,9.37
2023-05-14T23:03:21.262Z,9.87
2023-05-14T23:05:47.697Z,9.80
2023-05-14T23:08:14.225Z,9.67
2023-05-14T23:10:40.598Z,9.73
2023-05-14T23:13:07.414Z,9.97
2023-05-14T23:15:33.981Z,9.53
2023-05-14T23:18:00.500Z,9.60
2023-05-14T23:20:27.282Z,10.17
2023-05-14T23:22:54.064Z,9.17
2023-05-14T23:25:20.484Z,9.20
2023-05-14T23:27:46.948Z,9.23
2023-05-14T23:30:14.403Z,10.17
2023-05-14T23:32:40.863Z,9.67
2023-05-14T23:35:07.633Z,9.90
2023-05-14T23:37:35.790Z,10.07
2023-05-14T23:40:02.508Z,9.30
2023-05-14T23:42:28.896Z,10.00
2023-05-14T23:44:55.327Z,9.77
2023-05-14T23:47:21.825Z,10.40
2023-05-14T23:49:48.328Z,10.20
2023-05-14T23:52:14.702Z,9.63
2023-05-14T23:54:41.300Z,10.50
2023-05-14T23:57:07.761Z,10.03
2023-05-14T23:59:34.914Z,11.07
